KLM912 EPMO-EGPH
Flight info
| Callsign | KLM912 |
|---|---|
| Flight time | 2h 20m |
| Altitude | 36000 |
| Route | MO824 DCT NEBUN DCT LONAM DCT AGPED |
| Aircraft | B738/M-SDE2E3FGHIRWXY/LB1 |
Departure
| Time | 2026-04-24 06:15 |
|---|---|
| Airport | Warsaw Modlin Airport (EPMO) |
Arrival
| Time | 2026-04-24 08:36 |
|---|---|
| Airport | Edinburgh Airport (EGPH) |
| Time | Latitude | Longitude | Altitude | Speed | Heading |
|---|---|---|---|---|---|
| 2026-04-24 05:56 | 52.44781 | 20.65608 | 356 ft | 0 kts | 188° |
| 2026-04-24 06:11 | 52.44779 | 20.65609 | 359 ft | 2 kts | 177° |
| 2026-04-24 06:11 | 52.44774 | 20.65638 | 356 ft | 4 kts | 72° |
| 2026-04-24 06:11 | 52.44808 | 20.65686 | 359 ft | 9 kts | 35° |
| 2026-04-24 06:11 | 52.44841 | 20.65781 | 351 ft | 11 kts | 83° |
| 2026-04-24 06:12 | 52.44852 | 20.65936 | 357 ft | 17 kts | 81° |
| 2026-04-24 06:12 | 52.44874 | 20.66157 | 352 ft | 23 kts | 81° |
| 2026-04-24 06:12 | 52.44899 | 20.66430 | 355 ft | 25 kts | 82° |
| 2026-04-24 06:12 | 52.44925 | 20.66719 | 354 ft | 26 kts | 81° |
| 2026-04-24 06:13 | 52.44949 | 20.66965 | 359 ft | 22 kts | 81° |
| 2026-04-24 06:13 | 52.45053 | 20.67061 | 359 ft | 19 kts | 352° |
| 2026-04-24 06:13 | 52.45138 | 20.67038 | 352 ft | 18 kts | 350° |
| 2026-04-24 06:13 | 52.45255 | 20.66984 | 354 ft | 16 kts | 332° |
| 2026-04-24 06:14 | 52.45277 | 20.66885 | 353 ft | 0 kts | 263° |
| 2026-04-24 06:14 | 52.45274 | 20.66842 | 353 ft | 14 kts | 262° |
| 2026-04-24 06:14 | 52.45231 | 20.66381 | 354 ft | 70 kts | 261° |
| 2026-04-24 06:14 | 52.45127 | 20.65283 | 357 ft | 123 kts | 262° |
| 2026-04-24 06:15 | 52.44973 | 20.63642 | 352 ft | 167 kts | 261° |
| 2026-04-24 06:15 | 52.44789 | 20.61709 | 817 ft | 169 kts | 261° |
| 2026-04-24 06:15 | 52.44613 | 20.59739 | 1187 ft | 189 kts | 262° |
| 2026-04-24 06:15 | 52.44412 | 20.57461 | 1561 ft | 206 kts | 261° |
| 2026-04-24 06:16 | 52.44267 | 20.55150 | 2327 ft | 208 kts | 277° |
| 2026-04-24 06:16 | 52.44940 | 20.53177 | 3298 ft | 200 kts | 316° |
| 2026-04-24 06:16 | 52.46271 | 20.52107 | 3616 ft | 230 kts | 347° |
| 2026-04-24 06:16 | 52.47924 | 20.51880 | 4180 ft | 239 kts | 358° |
| 2026-04-24 06:17 | 52.49539 | 20.51927 | 5194 ft | 233 kts | 359° |
| 2026-04-24 06:17 | 52.51204 | 20.51955 | 5724 ft | 242 kts | 357° |
| 2026-04-24 06:17 | 52.52880 | 20.51875 | 6527 ft | 241 kts | 355° |
| 2026-04-24 06:17 | 52.54551 | 20.51712 | 7356 ft | 236 kts | 354° |
| 2026-04-24 06:18 | 52.56191 | 20.51526 | 8095 ft | 237 kts | 354° |
| 2026-04-24 06:18 | 52.57839 | 20.51350 | 8896 ft | 243 kts | 354° |
| 2026-04-24 06:18 | 52.59594 | 20.51180 | 9481 ft | 259 kts | 354° |
| 2026-04-24 06:18 | 52.61398 | 20.50883 | 10271 ft | 264 kts | 348° |
| 2026-04-24 06:19 | 52.63277 | 20.50390 | 10736 ft | 282 kts | 350° |
| 2026-04-24 06:19 | 52.65249 | 20.49693 | 11173 ft | 299 kts | 339° |
| 2026-04-24 06:19 | 52.67101 | 20.47975 | 11631 ft | 316 kts | 322° |
| 2026-04-24 06:19 | 52.68545 | 20.45150 | 12224 ft | 332 kts | 302° |
| 2026-04-24 06:20 | 52.69338 | 20.41495 | 12979 ft | 344 kts | 288° |
| 2026-04-24 06:20 | 52.69876 | 20.37607 | 13701 ft | 351 kts | 287° |
| 2026-04-24 06:20 | 52.70366 | 20.33650 | 14474 ft | 355 kts | 286° |
| 2026-04-24 06:20 | 52.70782 | 20.29592 | 15244 ft | 361 kts | 284° |
| 2026-04-24 06:21 | 52.71097 | 20.25452 | 15982 ft | 366 kts | 282° |
| 2026-04-24 06:21 | 52.71372 | 20.21248 | 16692 ft | 371 kts | 282° |
| 2026-04-24 06:21 | 52.71665 | 20.17000 | 17379 ft | 375 kts | 283° |
| 2026-04-24 06:21 | 52.71993 | 20.12707 | 18066 ft | 378 kts | 284° |
| 2026-04-24 06:22 | 52.72341 | 20.08398 | 18724 ft | 382 kts | 284° |
| 2026-04-24 06:22 | 52.72690 | 20.04026 | 19382 ft | 385 kts | 284° |
| 2026-04-24 06:22 | 52.73027 | 19.99622 | 20036 ft | 388 kts | 284° |
| 2026-04-24 06:22 | 52.73358 | 19.95181 | 20644 ft | 392 kts | 283° |
| 2026-04-24 06:23 | 52.73686 | 19.90746 | 21227 ft | 395 kts | 283° |
| 2026-04-24 06:23 | 52.74024 | 19.86219 | 21816 ft | 398 kts | 284° |
| 2026-04-24 06:23 | 52.74364 | 19.81681 | 22386 ft | 401 kts | 284° |
| 2026-04-24 06:23 | 52.74706 | 19.77092 | 22935 ft | 403 kts | 283° |
| 2026-04-24 06:24 | 52.75047 | 19.72483 | 23469 ft | 406 kts | 284° |
| 2026-04-24 06:24 | 52.75387 | 19.67843 | 23976 ft | 408 kts | 283° |
| 2026-04-24 06:24 | 52.75726 | 19.63175 | 24474 ft | 411 kts | 284° |
| 2026-04-24 06:24 | 52.76067 | 19.58479 | 24938 ft | 413 kts | 283° |
| 2026-04-24 06:25 | 52.76408 | 19.53750 | 25368 ft | 416 kts | 283° |
| 2026-04-24 06:25 | 52.76750 | 19.48988 | 25784 ft | 419 kts | 283° |
| 2026-04-24 06:25 | 52.77093 | 19.44182 | 26199 ft | 422 kts | 283° |
| 2026-04-24 06:25 | 52.77434 | 19.39371 | 26586 ft | 424 kts | 283° |
| 2026-04-24 06:26 | 52.77776 | 19.34512 | 26954 ft | 426 kts | 283° |
| 2026-04-24 06:26 | 52.78117 | 19.29634 | 27310 ft | 429 kts | 283° |
| 2026-04-24 06:26 | 52.78459 | 19.24728 | 27646 ft | 431 kts | 283° |
| 2026-04-24 06:26 | 52.78800 | 19.19804 | 27973 ft | 433 kts | 283° |
| 2026-04-24 06:27 | 52.79141 | 19.14845 | 28291 ft | 435 kts | 283° |
| 2026-04-24 06:27 | 52.79478 | 19.09916 | 28601 ft | 438 kts | 283° |
| 2026-04-24 06:27 | 52.79818 | 19.04908 | 28911 ft | 440 kts | 283° |
| 2026-04-24 06:27 | 52.80158 | 18.99877 | 29195 ft | 442 kts | 283° |
| 2026-04-24 06:28 | 52.80497 | 18.94822 | 29480 ft | 444 kts | 283° |
| 2026-04-24 06:28 | 52.80836 | 18.89745 | 29780 ft | 445 kts | 282° |
| 2026-04-24 06:28 | 52.81167 | 18.84691 | 30275 ft | 441 kts | 282° |
| 2026-04-24 06:28 | 52.81497 | 18.79647 | 30677 ft | 440 kts | 283° |
| 2026-04-24 06:29 | 52.81825 | 18.74631 | 31059 ft | 438 kts | 282° |
| 2026-04-24 06:29 | 52.82152 | 18.69621 | 31401 ft | 438 kts | 283° |
| 2026-04-24 06:29 | 52.82475 | 18.64616 | 31757 ft | 437 kts | 283° |
| 2026-04-24 06:29 | 52.82795 | 18.59621 | 32099 ft | 437 kts | 282° |
| 2026-04-24 06:30 | 52.83111 | 18.54635 | 32464 ft | 435 kts | 282° |
| 2026-04-24 06:30 | 52.83425 | 18.49661 | 32818 ft | 434 kts | 283° |
| 2026-04-24 06:30 | 52.83737 | 18.44699 | 33167 ft | 433 kts | 283° |
| 2026-04-24 06:30 | 52.84046 | 18.39747 | 33487 ft | 432 kts | 283° |
| 2026-04-24 06:31 | 52.84352 | 18.34805 | 33810 ft | 431 kts | 282° |
| 2026-04-24 06:31 | 52.84654 | 18.29880 | 34162 ft | 430 kts | 283° |
| 2026-04-24 06:31 | 52.84954 | 18.24964 | 34469 ft | 429 kts | 283° |
| 2026-04-24 06:31 | 52.85252 | 18.20055 | 34761 ft | 429 kts | 282° |
| 2026-04-24 06:32 | 52.85548 | 18.15150 | 35052 ft | 428 kts | 283° |
| 2026-04-24 06:32 | 52.85841 | 18.10252 | 35333 ft | 428 kts | 282° |
| 2026-04-24 06:32 | 52.86131 | 18.05361 | 35623 ft | 427 kts | 282° |
| 2026-04-24 06:32 | 52.86415 | 18.00543 | 35884 ft | 426 kts | 282° |
| 2026-04-24 06:33 | 52.86702 | 17.95653 | 36008 ft | 429 kts | 282° |
| 2026-04-24 06:33 | 52.87277 | 17.85772 | 36029 ft | 431 kts | 282° |
| 2026-04-24 06:34 | 52.87829 | 17.75986 | 36049 ft | 425 kts | 282° |
| 2026-04-24 06:34 | 52.88380 | 17.66254 | 36041 ft | 425 kts | 282° |
| 2026-04-24 06:35 | 52.88922 | 17.56507 | 36052 ft | 426 kts | 282° |
| 2026-04-24 06:35 | 52.89452 | 17.46746 | 36041 ft | 425 kts | 281° |
| 2026-04-24 06:36 | 52.89977 | 17.36986 | 36043 ft | 425 kts | 281° |
| 2026-04-24 06:36 | 52.90494 | 17.27239 | 36047 ft | 425 kts | 281° |
| 2026-04-24 06:37 | 52.91001 | 17.17476 | 36053 ft | 425 kts | 281° |
| 2026-04-24 06:37 | 52.91500 | 17.07727 | 36048 ft | 424 kts | 281° |
| 2026-04-24 06:38 | 52.91992 | 16.97975 | 36047 ft | 425 kts | 281° |
| 2026-04-24 06:38 | 52.92477 | 16.88223 | 36056 ft | 424 kts | 281° |
| 2026-04-24 06:39 | 52.92947 | 16.78532 | 36052 ft | 424 kts | 281° |
| 2026-04-24 06:39 | 52.93417 | 16.68773 | 36063 ft | 425 kts | 281° |
| 2026-04-24 06:40 | 52.93877 | 16.59011 | 36068 ft | 425 kts | 280° |
| 2026-04-24 06:40 | 52.94328 | 16.49245 | 36068 ft | 424 kts | 280° |
| 2026-04-24 06:41 | 52.94768 | 16.39549 | 36069 ft | 424 kts | 280° |
| 2026-04-24 06:41 | 52.95205 | 16.29785 | 36074 ft | 425 kts | 280° |
| 2026-04-24 06:42 | 52.95632 | 16.20031 | 36079 ft | 425 kts | 280° |
| 2026-04-24 06:42 | 52.96052 | 16.10248 | 36080 ft | 425 kts | 280° |
| 2026-04-24 06:43 | 52.96464 | 16.00474 | 36078 ft | 425 kts | 280° |
| 2026-04-24 06:43 | 52.96868 | 15.90700 | 36079 ft | 425 kts | 279° |
| 2026-04-24 06:44 | 52.97264 | 15.80930 | 36082 ft | 425 kts | 279° |
| 2026-04-24 06:44 | 52.97650 | 15.71168 | 36089 ft | 424 kts | 279° |
| 2026-04-24 06:45 | 52.98027 | 15.61479 | 36106 ft | 424 kts | 279° |
| 2026-04-24 06:45 | 52.98399 | 15.51688 | 36109 ft | 425 kts | 279° |
| 2026-04-24 06:46 | 52.98762 | 15.41909 | 36106 ft | 424 kts | 279° |
| 2026-04-24 06:46 | 52.99117 | 15.32143 | 36107 ft | 423 kts | 279° |
| 2026-04-24 06:47 | 52.99464 | 15.22386 | 36106 ft | 424 kts | 279° |
| 2026-04-24 06:47 | 52.99803 | 15.12614 | 36107 ft | 425 kts | 278° |
| 2026-04-24 06:48 | 53.00135 | 15.02819 | 36099 ft | 424 kts | 278° |
| 2026-04-24 06:48 | 53.00457 | 14.93056 | 36098 ft | 423 kts | 278° |
| 2026-04-24 06:49 | 53.00772 | 14.83293 | 36097 ft | 424 kts | 278° |
| 2026-04-24 06:49 | 53.01078 | 14.73573 | 36097 ft | 424 kts | 278° |
| 2026-04-24 06:50 | 53.01376 | 14.63810 | 36098 ft | 424 kts | 278° |
| 2026-04-24 06:50 | 53.01668 | 14.54032 | 36101 ft | 424 kts | 278° |
| 2026-04-24 06:51 | 53.01949 | 14.44268 | 36108 ft | 423 kts | 278° |
| 2026-04-24 06:51 | 53.02225 | 14.34499 | 36109 ft | 423 kts | 277° |
| 2026-04-24 06:52 | 53.02492 | 14.24724 | 36108 ft | 424 kts | 277° |
| 2026-04-24 06:52 | 53.02750 | 14.14946 | 36115 ft | 423 kts | 277° |
| 2026-04-24 06:53 | 53.02999 | 14.05239 | 36120 ft | 423 kts | 277° |
| 2026-04-24 06:53 | 53.03242 | 13.95469 | 36119 ft | 423 kts | 277° |
| 2026-04-24 06:54 | 53.03476 | 13.85713 | 36119 ft | 422 kts | 277° |
| 2026-04-24 06:54 | 53.03702 | 13.75959 | 36128 ft | 422 kts | 277° |
| 2026-04-24 06:55 | 53.03920 | 13.66218 | 36150 ft | 422 kts | 277° |
| 2026-04-24 06:55 | 53.04130 | 13.56456 | 36153 ft | 423 kts | 276° |
| 2026-04-24 06:56 | 53.04333 | 13.46688 | 36153 ft | 423 kts | 276° |
| 2026-04-24 06:56 | 53.04526 | 13.36994 | 36151 ft | 422 kts | 276° |
| 2026-04-24 06:57 | 53.04712 | 13.27257 | 36151 ft | 422 kts | 276° |
| 2026-04-24 06:57 | 53.04890 | 13.17499 | 36152 ft | 422 kts | 276° |
| 2026-04-24 06:58 | 53.05060 | 13.07741 | 36155 ft | 422 kts | 276° |
| 2026-04-24 06:58 | 53.05223 | 12.97994 | 36161 ft | 422 kts | 276° |
| 2026-04-24 06:59 | 53.05377 | 12.88244 | 36160 ft | 422 kts | 275° |
| 2026-04-24 06:59 | 53.05523 | 12.78471 | 36160 ft | 422 kts | 275° |
| 2026-04-24 07:00 | 53.05660 | 12.68805 | 36161 ft | 421 kts | 275° |
| 2026-04-24 07:00 | 53.05791 | 12.59065 | 36160 ft | 421 kts | 275° |
| 2026-04-24 07:01 | 53.05913 | 12.49325 | 36153 ft | 422 kts | 275° |
| 2026-04-24 07:01 | 53.06028 | 12.39580 | 36151 ft | 421 kts | 275° |
| 2026-04-24 07:02 | 53.06133 | 12.29861 | 36151 ft | 421 kts | 275° |
| 2026-04-24 07:02 | 53.06232 | 12.20137 | 36158 ft | 421 kts | 275° |
| 2026-04-24 07:03 | 53.06322 | 12.10405 | 36162 ft | 421 kts | 275° |
| 2026-04-24 07:03 | 53.06404 | 12.00674 | 36166 ft | 420 kts | 275° |
| 2026-04-24 07:04 | 53.06467 | 11.92604 | 36169 ft | 420 kts | 274° |
| 2026-04-24 07:04 | 53.06535 | 11.82877 | 36171 ft | 420 kts | 274° |
| 2026-04-24 07:05 | 53.06604 | 11.71578 | 36170 ft | 421 kts | 274° |
| 2026-04-24 07:05 | 53.06646 | 11.63436 | 36169 ft | 420 kts | 274° |
| 2026-04-24 07:06 | 53.06690 | 11.53720 | 36169 ft | 420 kts | 274° |
| 2026-04-24 07:06 | 53.06727 | 11.44008 | 36178 ft | 420 kts | 273° |
| 2026-04-24 07:07 | 53.06754 | 11.34273 | 36190 ft | 421 kts | 273° |
| 2026-04-24 07:07 | 53.07067 | 11.19797 | 36208 ft | 416 kts | 284° |
| 2026-04-24 07:08 | 53.08325 | 11.10408 | 36190 ft | 416 kts | 285° |
| 2026-04-24 07:08 | 53.09632 | 11.01031 | 36182 ft | 416 kts | 285° |
| 2026-04-24 07:09 | 53.10916 | 10.91635 | 36190 ft | 417 kts | 284° |
| 2026-04-24 07:09 | 53.12187 | 10.82222 | 36186 ft | 417 kts | 284° |
| 2026-04-24 07:10 | 53.13459 | 10.72805 | 36190 ft | 418 kts | 284° |
| 2026-04-24 07:10 | 53.14725 | 10.63352 | 36196 ft | 418 kts | 284° |
| 2026-04-24 07:11 | 53.15980 | 10.53903 | 36197 ft | 417 kts | 284° |
| 2026-04-24 07:11 | 53.17227 | 10.44476 | 36200 ft | 416 kts | 284° |
| 2026-04-24 07:12 | 53.18466 | 10.35043 | 36199 ft | 417 kts | 284° |
| 2026-04-24 07:12 | 53.19697 | 10.25604 | 36199 ft | 416 kts | 283° |
| 2026-04-24 07:13 | 53.20919 | 10.16164 | 36199 ft | 416 kts | 283° |
| 2026-04-24 07:13 | 53.22136 | 10.06709 | 36199 ft | 416 kts | 283° |
| 2026-04-24 07:14 | 53.23336 | 9.97329 | 36211 ft | 416 kts | 283° |
| 2026-04-24 07:14 | 53.24538 | 9.87860 | 36219 ft | 417 kts | 283° |
| 2026-04-24 07:15 | 53.25735 | 9.78364 | 36222 ft | 418 kts | 282° |
| 2026-04-24 07:15 | 53.26924 | 9.68878 | 36219 ft | 417 kts | 282° |
| 2026-04-24 07:16 | 53.28102 | 9.59401 | 36218 ft | 417 kts | 282° |
| 2026-04-24 07:16 | 53.29276 | 9.49902 | 36225 ft | 417 kts | 282° |
| 2026-04-24 07:17 | 53.30439 | 9.40419 | 36226 ft | 417 kts | 282° |
| 2026-04-24 07:17 | 53.31600 | 9.30893 | 36233 ft | 418 kts | 282° |
| 2026-04-24 07:18 | 53.32743 | 9.21432 | 36234 ft | 417 kts | 282° |
| 2026-04-24 07:18 | 53.33888 | 9.11908 | 36236 ft | 418 kts | 282° |
| 2026-04-24 07:19 | 53.35031 | 9.02322 | 36240 ft | 417 kts | 281° |
| 2026-04-24 07:19 | 53.36159 | 8.92792 | 36239 ft | 417 kts | 281° |
| 2026-04-24 07:20 | 53.37280 | 8.83252 | 36241 ft | 418 kts | 281° |
| 2026-04-24 07:20 | 53.38392 | 8.73715 | 36252 ft | 417 kts | 281° |
| 2026-04-24 07:21 | 53.39489 | 8.64237 | 36249 ft | 417 kts | 281° |
| 2026-04-24 07:21 | 53.40587 | 8.54677 | 36249 ft | 417 kts | 281° |
| 2026-04-24 07:22 | 53.41676 | 8.45141 | 36251 ft | 416 kts | 281° |
| 2026-04-24 07:22 | 53.42755 | 8.35614 | 36252 ft | 416 kts | 280° |
| 2026-04-24 07:23 | 53.43827 | 8.26075 | 36257 ft | 416 kts | 280° |
| 2026-04-24 07:23 | 53.44889 | 8.16545 | 36260 ft | 415 kts | 280° |
| 2026-04-24 07:24 | 53.45942 | 8.07024 | 36268 ft | 415 kts | 280° |
| 2026-04-24 07:24 | 53.46983 | 7.97556 | 36270 ft | 415 kts | 280° |
| 2026-04-24 07:25 | 53.48022 | 7.88027 | 36277 ft | 415 kts | 279° |
| 2026-04-24 07:25 | 53.49055 | 7.78470 | 36278 ft | 417 kts | 279° |
| 2026-04-24 07:26 | 53.50081 | 7.68900 | 36279 ft | 416 kts | 279° |
| 2026-04-24 07:26 | 53.51098 | 7.59342 | 36279 ft | 415 kts | 279° |
| 2026-04-24 07:27 | 53.52108 | 7.49777 | 36278 ft | 416 kts | 279° |
| 2026-04-24 07:27 | 53.53114 | 7.40180 | 36285 ft | 417 kts | 279° |
| 2026-04-24 07:28 | 53.54111 | 7.30575 | 36289 ft | 417 kts | 279° |
| 2026-04-24 07:28 | 53.55103 | 7.20946 | 36292 ft | 418 kts | 278° |
| 2026-04-24 07:29 | 53.56088 | 7.11307 | 36312 ft | 418 kts | 278° |
| 2026-04-24 07:29 | 53.57067 | 7.01641 | 36310 ft | 420 kts | 278° |
| 2026-04-24 07:30 | 53.58043 | 6.91933 | 36304 ft | 421 kts | 278° |
| 2026-04-24 07:30 | 53.59010 | 6.82226 | 36305 ft | 420 kts | 278° |
| 2026-04-24 07:31 | 53.59966 | 6.72540 | 36314 ft | 419 kts | 278° |
| 2026-04-24 07:31 | 53.60910 | 6.62893 | 36313 ft | 421 kts | 277° |
| 2026-04-24 07:32 | 53.61854 | 6.53175 | 36301 ft | 420 kts | 277° |
| 2026-04-24 07:32 | 53.62787 | 6.43477 | 36319 ft | 419 kts | 277° |
| 2026-04-24 07:33 | 53.63711 | 6.33784 | 36319 ft | 419 kts | 277° |
| 2026-04-24 07:33 | 53.64626 | 6.24100 | 36330 ft | 419 kts | 277° |
| 2026-04-24 07:34 | 53.65537 | 6.14373 | 36319 ft | 419 kts | 277° |
| 2026-04-24 07:34 | 53.66437 | 6.04685 | 36309 ft | 418 kts | 277° |
| 2026-04-24 07:35 | 53.67328 | 5.94995 | 36302 ft | 419 kts | 276° |
| 2026-04-24 07:35 | 53.68213 | 5.85266 | 36310 ft | 420 kts | 276° |
| 2026-04-24 07:36 | 53.69092 | 5.75544 | 36307 ft | 419 kts | 276° |
| 2026-04-24 07:36 | 53.69957 | 5.65875 | 36305 ft | 419 kts | 276° |
| 2026-04-24 07:37 | 53.70818 | 5.56141 | 36314 ft | 419 kts | 276° |
| 2026-04-24 07:37 | 53.71674 | 5.46381 | 36327 ft | 421 kts | 276° |
| 2026-04-24 07:38 | 53.72525 | 5.36600 | 36333 ft | 421 kts | 276° |
| 2026-04-24 07:38 | 53.73369 | 5.26783 | 36344 ft | 423 kts | 276° |
| 2026-04-24 07:39 | 53.74208 | 5.16938 | 36350 ft | 423 kts | 275° |
| 2026-04-24 07:39 | 53.75039 | 5.07078 | 36354 ft | 425 kts | 275° |
| 2026-04-24 07:40 | 53.75864 | 4.97195 | 36360 ft | 425 kts | 275° |
| 2026-04-24 07:40 | 53.76683 | 4.87285 | 36359 ft | 425 kts | 275° |
| 2026-04-24 07:41 | 53.77494 | 4.77372 | 36361 ft | 426 kts | 275° |
| 2026-04-24 07:41 | 53.78291 | 4.67502 | 36362 ft | 427 kts | 275° |
| 2026-04-24 07:42 | 53.79089 | 4.57543 | 36364 ft | 427 kts | 275° |
| 2026-04-24 07:42 | 53.79877 | 4.47602 | 36362 ft | 426 kts | 274° |
| 2026-04-24 07:43 | 53.80655 | 4.37659 | 36362 ft | 426 kts | 274° |
| 2026-04-24 07:43 | 53.81427 | 4.27694 | 36369 ft | 427 kts | 274° |
| 2026-04-24 07:44 | 53.82190 | 4.17731 | 36369 ft | 428 kts | 274° |
| 2026-04-24 07:44 | 53.82945 | 4.07760 | 36371 ft | 426 kts | 274° |
| 2026-04-24 07:45 | 53.83690 | 3.97810 | 36371 ft | 426 kts | 275° |
| 2026-04-24 07:45 | 53.85459 | 3.88167 | 36377 ft | 434 kts | 288° |
| 2026-04-24 07:46 | 53.87803 | 3.78719 | 36373 ft | 435 kts | 289° |
| 2026-04-24 07:46 | 53.90143 | 3.69357 | 36370 ft | 434 kts | 289° |
| 2026-04-24 07:47 | 53.92462 | 3.59892 | 36377 ft | 435 kts | 289° |
| 2026-04-24 07:47 | 53.94784 | 3.50404 | 36379 ft | 436 kts | 289° |
| 2026-04-24 07:48 | 53.97111 | 3.40892 | 36386 ft | 436 kts | 288° |
| 2026-04-24 07:48 | 53.99426 | 3.31357 | 36387 ft | 437 kts | 288° |
| 2026-04-24 07:49 | 54.01738 | 3.21790 | 36392 ft | 437 kts | 289° |
| 2026-04-24 07:49 | 54.04036 | 3.12264 | 36391 ft | 433 kts | 288° |
| 2026-04-24 07:50 | 54.06310 | 3.02775 | 36390 ft | 433 kts | 288° |
| 2026-04-24 07:50 | 54.08583 | 2.93247 | 36389 ft | 435 kts | 288° |
| 2026-04-24 07:51 | 54.10475 | 2.85292 | 36391 ft | 436 kts | 288° |
| 2026-04-24 07:51 | 54.13120 | 2.74121 | 36391 ft | 438 kts | 288° |
| 2026-04-24 07:52 | 54.15390 | 2.64485 | 36392 ft | 439 kts | 288° |
| 2026-04-24 07:52 | 54.17291 | 2.56385 | 36388 ft | 439 kts | 288° |
| 2026-04-24 07:53 | 54.19543 | 2.46744 | 36392 ft | 440 kts | 288° |
| 2026-04-24 07:53 | 54.21807 | 2.37012 | 36391 ft | 440 kts | 287° |
| 2026-04-24 07:54 | 54.24062 | 2.27274 | 36392 ft | 441 kts | 287° |
| 2026-04-24 07:54 | 54.26315 | 2.17492 | 36387 ft | 442 kts | 287° |
| 2026-04-24 07:55 | 54.28561 | 2.07702 | 36390 ft | 442 kts | 287° |
| 2026-04-24 07:55 | 54.30800 | 1.97902 | 36387 ft | 442 kts | 287° |
| 2026-04-24 07:56 | 54.33030 | 1.88091 | 36390 ft | 443 kts | 287° |
| 2026-04-24 07:56 | 54.35260 | 1.78228 | 36388 ft | 443 kts | 287° |
| 2026-04-24 07:57 | 54.37480 | 1.68376 | 36389 ft | 443 kts | 287° |
| 2026-04-24 07:57 | 54.39688 | 1.58520 | 36390 ft | 443 kts | 287° |
| 2026-04-24 07:58 | 54.41886 | 1.48663 | 36389 ft | 443 kts | 287° |
| 2026-04-24 07:58 | 54.44066 | 1.38848 | 36386 ft | 443 kts | 287° |
| 2026-04-24 07:59 | 54.46252 | 1.28952 | 36389 ft | 443 kts | 287° |
| 2026-04-24 07:59 | 54.48430 | 1.19048 | 36397 ft | 443 kts | 287° |
| 2026-04-24 08:00 | 54.50602 | 1.09127 | 36401 ft | 443 kts | 287° |
| 2026-04-24 08:00 | 54.52768 | 0.99179 | 36398 ft | 444 kts | 287° |
| 2026-04-24 08:01 | 54.54929 | 0.89212 | 36394 ft | 445 kts | 287° |
| 2026-04-24 08:01 | 54.57086 | 0.79208 | 36395 ft | 445 kts | 287° |
| 2026-04-24 08:02 | 54.59235 | 0.69199 | 36409 ft | 445 kts | 287° |
| 2026-04-24 08:02 | 54.61367 | 0.59219 | 36412 ft | 447 kts | 287° |
| 2026-04-24 08:03 | 54.63506 | 0.49153 | 36404 ft | 447 kts | 286° |
| 2026-04-24 08:03 | 54.65640 | 0.39059 | 36407 ft | 448 kts | 286° |
| 2026-04-24 08:04 | 54.67768 | 0.28953 | 36407 ft | 448 kts | 286° |
| 2026-04-24 08:04 | 54.69891 | 0.18813 | 36404 ft | 448 kts | 286° |
| 2026-04-24 08:05 | 54.72002 | 0.08679 | 36406 ft | 448 kts | 286° |
| 2026-04-24 08:05 | 54.74107 | -0.01474 | 36407 ft | 448 kts | 286° |
| 2026-04-24 08:06 | 54.76194 | -0.11598 | 36411 ft | 451 kts | 288° |
| 2026-04-24 08:06 | 54.78312 | -0.21919 | 36405 ft | 453 kts | 289° |
| 2026-04-24 08:07 | 54.80401 | -0.32148 | 36402 ft | 453 kts | 290° |
| 2026-04-24 08:07 | 54.82490 | -0.42436 | 36410 ft | 451 kts | 290° |
| 2026-04-24 08:08 | 54.84565 | -0.52706 | 36415 ft | 451 kts | 290° |
| 2026-04-24 08:09 | 54.87667 | -0.68170 | 36414 ft | 452 kts | 289° |
| 2026-04-24 08:09 | 54.89723 | -0.78477 | 36415 ft | 452 kts | 289° |
| 2026-04-24 08:10 | 54.91770 | -0.88797 | 36414 ft | 452 kts | 289° |
| 2026-04-24 08:10 | 54.93792 | -0.99048 | 36416 ft | 452 kts | 289° |
| 2026-04-24 08:11 | 54.95822 | -1.09387 | 36417 ft | 452 kts | 289° |
| 2026-04-24 08:11 | 54.96836 | -1.14576 | 35987 ft | 458 kts | 289° |
| 2026-04-24 08:11 | 54.97871 | -1.19884 | 35078 ft | 465 kts | 289° |
| 2026-04-24 08:11 | 54.98914 | -1.25251 | 34211 ft | 469 kts | 289° |
| 2026-04-24 08:12 | 54.99949 | -1.30591 | 33627 ft | 460 kts | 289° |
| 2026-04-24 08:12 | 55.00960 | -1.35825 | 33075 ft | 452 kts | 289° |
| 2026-04-24 08:12 | 55.01951 | -1.40963 | 32529 ft | 443 kts | 289° |
| 2026-04-24 08:12 | 55.02923 | -1.46016 | 31976 ft | 436 kts | 289° |
| 2026-04-24 08:13 | 55.03878 | -1.50998 | 31434 ft | 430 kts | 289° |
| 2026-04-24 08:13 | 55.04820 | -1.55923 | 30886 ft | 426 kts | 289° |
| 2026-04-24 08:13 | 55.05751 | -1.60802 | 30353 ft | 422 kts | 288° |
| 2026-04-24 08:13 | 55.06671 | -1.65636 | 29805 ft | 418 kts | 288° |
| 2026-04-24 08:14 | 55.07581 | -1.70426 | 29267 ft | 414 kts | 288° |
| 2026-04-24 08:14 | 55.08481 | -1.75181 | 28722 ft | 411 kts | 288° |
| 2026-04-24 08:14 | 55.09372 | -1.79900 | 28173 ft | 408 kts | 288° |
| 2026-04-24 08:14 | 55.10254 | -1.84588 | 27619 ft | 405 kts | 288° |
| 2026-04-24 08:15 | 55.11127 | -1.89243 | 27071 ft | 402 kts | 288° |
| 2026-04-24 08:15 | 55.12019 | -1.93848 | 26523 ft | 398 kts | 292° |
| 2026-04-24 08:15 | 55.13268 | -1.98132 | 26023 ft | 393 kts | 300° |
| 2026-04-24 08:15 | 55.14618 | -2.02270 | 25505 ft | 390 kts | 300° |
| 2026-04-24 08:16 | 55.15963 | -2.06362 | 25000 ft | 386 kts | 300° |
| 2026-04-24 08:16 | 55.17304 | -2.10420 | 24504 ft | 383 kts | 300° |
| 2026-04-24 08:16 | 55.18611 | -2.14379 | 24019 ft | 379 kts | 300° |
| 2026-04-24 08:16 | 55.19919 | -2.18357 | 23530 ft | 375 kts | 300° |
| 2026-04-24 08:17 | 55.21209 | -2.22302 | 23051 ft | 372 kts | 300° |
| 2026-04-24 08:17 | 55.22485 | -2.26207 | 22578 ft | 369 kts | 300° |
| 2026-04-24 08:17 | 55.23755 | -2.30103 | 22103 ft | 366 kts | 300° |
| 2026-04-24 08:17 | 55.25011 | -2.33953 | 21642 ft | 363 kts | 300° |
| 2026-04-24 08:18 | 55.26259 | -2.37785 | 21165 ft | 361 kts | 300° |
| 2026-04-24 08:18 | 55.27496 | -2.41592 | 20706 ft | 358 kts | 300° |
| 2026-04-24 08:18 | 55.28726 | -2.45386 | 20255 ft | 355 kts | 300° |
| 2026-04-24 08:18 | 55.29944 | -2.49144 | 19799 ft | 353 kts | 300° |
| 2026-04-24 08:19 | 55.31152 | -2.52879 | 19346 ft | 351 kts | 300° |
| 2026-04-24 08:19 | 55.32351 | -2.56594 | 18900 ft | 349 kts | 300° |
| 2026-04-24 08:19 | 55.33542 | -2.60285 | 18465 ft | 347 kts | 300° |
| 2026-04-24 08:19 | 55.34724 | -2.63959 | 18009 ft | 344 kts | 300° |
| 2026-04-24 08:20 | 55.35898 | -2.67611 | 17573 ft | 342 kts | 300° |
| 2026-04-24 08:20 | 55.37068 | -2.71256 | 17133 ft | 342 kts | 300° |
| 2026-04-24 08:20 | 55.38236 | -2.74899 | 16698 ft | 341 kts | 300° |
| 2026-04-24 08:20 | 55.39398 | -2.78533 | 16143 ft | 343 kts | 300° |
| 2026-04-24 08:21 | 55.40578 | -2.82225 | 15413 ft | 350 kts | 300° |
| 2026-04-24 08:21 | 55.41782 | -2.86000 | 14663 ft | 356 kts | 300° |
| 2026-04-24 08:21 | 55.43002 | -2.89835 | 13890 ft | 362 kts | 300° |
| 2026-04-24 08:21 | 55.44226 | -2.93686 | 13111 ft | 358 kts | 300° |
| 2026-04-24 08:22 | 55.45586 | -2.97291 | 12361 ft | 351 kts | 312° |
| 2026-04-24 08:22 | 55.47443 | -2.99981 | 11749 ft | 342 kts | 330° |
| 2026-04-24 08:22 | 55.49605 | -3.01566 | 11223 ft | 331 kts | 341° |
| 2026-04-24 08:22 | 55.51760 | -3.02811 | 10722 ft | 321 kts | 342° |
| 2026-04-24 08:23 | 55.53820 | -3.03928 | 10606 ft | 299 kts | 342° |
| 2026-04-24 08:23 | 55.55726 | -3.04948 | 10480 ft | 281 kts | 343° |
| 2026-04-24 08:23 | 55.57620 | -3.05480 | 10377 ft | 274 kts | 357° |
| 2026-04-24 08:23 | 55.59538 | -3.05437 | 10110 ft | 277 kts | 2° |
| 2026-04-24 08:24 | 55.61437 | -3.05200 | 9808 ft | 269 kts | 4° |
| 2026-04-24 08:24 | 55.63276 | -3.04905 | 9514 ft | 262 kts | 4° |
| 2026-04-24 08:24 | 55.65077 | -3.04593 | 9226 ft | 259 kts | 5° |
| 2026-04-24 08:24 | 55.66865 | -3.04280 | 8920 ft | 258 kts | 5° |
| 2026-04-24 08:25 | 55.68656 | -3.03961 | 8595 ft | 257 kts | 5° |
| 2026-04-24 08:25 | 55.70401 | -3.03643 | 8280 ft | 250 kts | 5° |
| 2026-04-24 08:25 | 55.72125 | -3.03326 | 7918 ft | 247 kts | 5° |
| 2026-04-24 08:25 | 55.73826 | -3.03017 | 7551 ft | 244 kts | 5° |
| 2026-04-24 08:26 | 55.75492 | -3.02715 | 7182 ft | 238 kts | 5° |
| 2026-04-24 08:26 | 55.77126 | -3.02416 | 6809 ft | 234 kts | 5° |
| 2026-04-24 08:26 | 55.78731 | -3.02120 | 6432 ft | 230 kts | 5° |
| 2026-04-24 08:26 | 55.80311 | -3.01830 | 6060 ft | 226 kts | 5° |
| 2026-04-24 08:27 | 55.81859 | -3.01551 | 5729 ft | 221 kts | 5° |
| 2026-04-24 08:27 | 55.83371 | -3.01278 | 5407 ft | 216 kts | 5° |
| 2026-04-24 08:27 | 55.84856 | -3.01010 | 5081 ft | 213 kts | 5° |
| 2026-04-24 08:27 | 55.86327 | -3.00749 | 4758 ft | 212 kts | 5° |
| 2026-04-24 08:28 | 55.87786 | -3.00492 | 4494 ft | 210 kts | 5° |
| 2026-04-24 08:28 | 55.89242 | -3.00242 | 4243 ft | 210 kts | 5° |
| 2026-04-24 08:28 | 55.90696 | -3.00000 | 4026 ft | 209 kts | 5° |
| 2026-04-24 08:28 | 55.92143 | -2.99762 | 4020 ft | 211 kts | 5° |
| 2026-04-24 08:29 | 55.93607 | -2.99521 | 4003 ft | 210 kts | 5° |
| 2026-04-24 08:29 | 55.95062 | -2.99279 | 3999 ft | 212 kts | 5° |
| 2026-04-24 08:29 | 55.96537 | -2.99035 | 3880 ft | 215 kts | 5° |
| 2026-04-24 08:29 | 55.98011 | -2.98788 | 3678 ft | 209 kts | 5° |
| 2026-04-24 08:30 | 55.99453 | -2.98547 | 3465 ft | 208 kts | 5° |
| 2026-04-24 08:30 | 56.00896 | -2.98313 | 3253 ft | 208 kts | 3° |
| 2026-04-24 08:30 | 56.02267 | -2.98899 | 3046 ft | 203 kts | 326° |
| 2026-04-24 08:30 | 56.03126 | -3.00786 | 3051 ft | 196 kts | 292° |
| 2026-04-24 08:31 | 56.03474 | -3.03114 | 3036 ft | 192 kts | 278° |
| 2026-04-24 08:31 | 56.03603 | -3.05450 | 3014 ft | 190 kts | 273° |
| 2026-04-24 08:31 | 56.03648 | -3.07791 | 3009 ft | 188 kts | 271° |
| 2026-04-24 08:31 | 56.03654 | -3.10114 | 3003 ft | 186 kts | 266° |
| 2026-04-24 08:32 | 56.03348 | -3.12352 | 2990 ft | 187 kts | 246° |
| 2026-04-24 08:32 | 56.02702 | -3.14398 | 2787 ft | 189 kts | 239° |
| 2026-04-24 08:32 | 56.02033 | -3.16370 | 2539 ft | 184 kts | 239° |
| 2026-04-24 08:32 | 56.01400 | -3.18249 | 2311 ft | 170 kts | 239° |
| 2026-04-24 08:33 | 56.00801 | -3.20030 | 2087 ft | 168 kts | 238° |
| 2026-04-24 08:33 | 56.00198 | -3.21822 | 1863 ft | 165 kts | 239° |
| 2026-04-24 08:33 | 55.99624 | -3.23530 | 1660 ft | 161 kts | 239° |
| 2026-04-24 08:33 | 55.99048 | -3.25242 | 1438 ft | 160 kts | 239° |
| 2026-04-24 08:34 | 55.98488 | -3.26904 | 1229 ft | 153 kts | 239° |
| 2026-04-24 08:34 | 55.97946 | -3.28510 | 1031 ft | 150 kts | 239° |
| 2026-04-24 08:34 | 55.97414 | -3.30092 | 832 ft | 148 kts | 240° |
| 2026-04-24 08:34 | 55.96885 | -3.31657 | 641 ft | 147 kts | 239° |
| 2026-04-24 08:35 | 55.96355 | -3.33221 | 410 ft | 147 kts | 240° |
| 2026-04-24 08:35 | 55.95833 | -3.34783 | 181 ft | 145 kts | 240° |
| 2026-04-24 08:35 | 55.95317 | -3.36308 | 101 ft | 141 kts | 239° |
| 2026-04-24 08:35 | 55.94861 | -3.37643 | 111 ft | 101 kts | 238° |
| 2026-04-24 08:36 | 55.94693 | -3.38051 | 114 ft | 0 kts | 178° |
| 2026-04-24 08:36 | 55.94662 | -3.38024 | 113 ft | 8 kts | 151° |
| 2026-04-24 08:36 | 55.94606 | -3.37947 | 110 ft | 12 kts | 108° |
| 2026-04-24 08:36 | 55.94630 | -3.37783 | 112 ft | 17 kts | 64° |
| 2026-04-24 08:37 | 55.94711 | -3.37531 | 110 ft | 30 kts | 60° |
| 2026-04-24 08:37 | 55.94814 | -3.37232 | 104 ft | 28 kts | 59° |
| 2026-04-24 08:37 | 55.94874 | -3.37049 | 104 ft | 9 kts | 59° |
| 2026-04-24 08:37 | 55.94907 | -3.36952 | 103 ft | 10 kts | 59° |
| 2026-04-24 08:38 | 55.94897 | -3.36827 | 105 ft | 12 kts | 139° |
| 2026-04-24 08:38 | 55.94811 | -3.36775 | 104 ft | 15 kts | 167° |
| 2026-04-24 08:38 | 55.94708 | -3.36716 | 104 ft | 15 kts | 138° |
| 2026-04-24 08:38 | 55.94684 | -3.36598 | 106 ft | 0 kts | 75° |
| 2026-04-24 08:40 | 55.94703 | -3.36598 | 106 ft | 0 kts | 88° |